Terminal Aerodrome Forecast
Issued by NWS

Home | Current Version | Previous Version | Text Only | Print | Product List | Glossary On
Versions: 1 2 3 4 5 6 7 8 9 10 11 12 13 14
521
FTUS43 KGRR 300540
TAFAZO
TAF
KAZO 300540Z 3006/0106 09010KT P6SM -RA OVC035
     FM300900 07014G22KT 5SM RA BR OVC025
     FM301400 07018KT 3SM RA BR OVC008
     FM010000 14009KT 2SM -TSRA BR OVC007CB=

USA.gov is the U.S. government's official web portal to all federal, state and local government web resources and services.